Terminal Aerodrome Forecast
Issued by NWS Charleston, WV

Current Version | Previous Version | Graphics & Text | Print | Product List | Glossary On
Versions: 1 2 3 4 5 6 7 8 9 10 11 12 13 14 15 16 17 18 19 20 21 22 23 24 25 26 27 28 29 30 31 32 33 34 35
000
FTUS41 KRLX 180900 AAA
TAFEKN
TAF AMD
KEKN 180911Z 1809/1906 27006G17KT P6SM OVC035
     FM181100 30008KT P6SM BKN028
     FM181500 28011G19KT P6SM BKN022
     FM181800 28012G20KT 6SM -RA BR BKN020
     FM190200 30011G19KT 6SM BR OVC012=

USA.gov is the U.S. government's official web portal to all federal, state and local government web resources and services.